Time,TemperatureF,DewpointF,PressureIn,WindDirection,WindDirectionDegrees,WindSpeedMPH,WindSpeedGustMPH,Humidity,HourlyPrecipIn,Conditions,Clouds,dailyrainin,SoftwareType,DateUTC
2013-03-25 00:12:00,32.0,18.1,29.97,ESE,112,0.0,-999.0,56,-99.99,,,0.00,Acu-Link.com,2013-03-25 07:12:00,
2013-03-25 00:28:00,32.0,17.7,29.97,SW,225,2.0,-999.0,55,-99.99,,,0.00,Acu-Link.com,2013-03-25 07:28:00,
2013-03-25 00:43:00,32.0,18.1,29.96,SE,135,0.0,-999.0,56,-99.99,,,0.00,Acu-Link.com,2013-03-25 07:43:00,
2013-03-25 00:58:00,32.0,18.9,29.96,ESE,112,2.0,-999.0,58,-99.99,,,0.00,Acu-Link.com,2013-03-25 07:58:00,
2013-03-25 01:14:00,32.0,18.5,29.96,ESE,112,0.0,-999.0,57,-99.99,,,0.00,Acu-Link.com,2013-03-25 08:14:00,
2013-03-25 01:29:00,32.0,18.5,29.96,SW,225,0.0,-999.0,57,-99.99,,,0.00,Acu-Link.com,2013-03-25 08:29:00,
2013-03-25 01:44:00,32.0,18.1,29.96,ESE,112,2.0,-999.0,56,-99.99,,,0.00,Acu-Link.com,2013-03-25 08:44:00,
2013-03-25 01:59:00,32.0,18.9,29.96,ESE,112,0.0,-999.0,58,-99.99,,,0.00,Acu-Link.com,2013-03-25 08:59:00,
2013-03-25 02:14:00,32.0,19.3,29.96,ESE,112,1.1,-999.0,59,-99.99,,,0.00,Acu-Link.com,2013-03-25 09:14:00,
2013-03-25 02:29:00,102.2,64.8,29.95,East,90,1.1,-999.0,30,-99.99,,,0.00,Acu-Link.com,2013-03-25 09:29:00,
2013-03-25 02:44:00,32.0,19.3,29.95,WSW,247,0.0,-999.0,59,-99.99,,,0.00,Acu-Link.com,2013-03-25 09:44:00,
2013-03-25 02:59:00,32.0,19.3,29.96,SSE,157,0.0,-999.0,59,-99.99,,,0.00,Acu-Link.com,2013-03-25 09:59:00,
2013-03-25 03:15:00,32.0,20.1,29.95,ESE,112,0.0,-999.0,61,-99.99,,,0.00,Acu-Link.com,2013-03-25 10:15:00,
2013-03-25 03:30:00,32.0,19.7,29.95,ESE,112,0.0,-999.0,60,-99.99,,,0.00,Acu-Link.com,2013-03-25 10:30:00,
2013-03-25 03:45:00,30.2,18.0,29.94,SSE,157,0.0,-999.0,60,-99.99,,,0.00,Acu-Link.com,2013-03-25 10:45:00,
2013-03-25 04:00:00,30.2,19.1,29.95,SW,225,0.0,-999.0,63,-99.99,,,0.00,Acu-Link.com,2013-03-25 11:00:00,
2013-03-25 04:15:00,30.2,18.8,29.94,SE,135,0.0,-999.0,62,-99.99,,,0.00,Acu-Link.com,2013-03-25 11:15:00,
2013-03-25 04:30:00,30.2,19.5,29.94,East,90,0.0,-999.0,64,-99.99,,,0.00,Acu-Link.com,2013-03-25 11:30:00,
2013-03-25 04:46:00,30.2,18.8,29.94,ESE,112,0.0,-999.0,62,-99.99,,,0.00,Acu-Link.com,2013-03-25 11:46:00,
2013-03-25 05:16:00,30.2,19.9,29.95,SSE,157,0.0,-999.0,65,-99.99,,,0.00,Acu-Link.com,2013-03-25 12:16:00,
2013-03-25 05:31:00,30.2,20.2,29.94,ESE,112,0.0,-999.0,66,-99.99,,,0.00,Acu-Link.com,2013-03-25 12:31:00,
2013-03-25 05:46:00,30.2,19.5,29.94,NNE,22,0.0,-999.0,64,-99.99,,,0.00,Acu-Link.com,2013-03-25 12:46:00,
2013-03-25 06:02:00,30.2,19.9,29.95,ENE,67,0.0,-999.0,65,-99.99,,,0.00,Acu-Link.com,2013-03-25 13:02:00,
2013-03-25 06:17:00,30.2,19.9,29.95,SSW,202,0.0,-999.0,65,-99.99,,,0.00,Acu-Link.com,2013-03-25 13:17:00,
2013-03-25 06:32:00,30.2,19.9,29.95,SSW,202,0.0,-999.0,65,-99.99,,,0.00,Acu-Link.com,2013-03-25 13:32:00,
2013-03-25 06:48:00,30.2,19.9,29.95,SSW,202,0.0,-999.0,65,-99.99,,,0.00,Acu-Link.com,2013-03-25 13:48:00,
2013-03-25 07:03:00,30.2,20.9,29.94,SSW,202,0.0,-999.0,68,-99.99,,,0.00,Acu-Link.com,2013-03-25 14:03:00,
2013-03-25 07:18:00,30.2,20.9,29.94,SSE,157,0.0,-999.0,68,-99.99,,,0.00,Acu-Link.com,2013-03-25 14:18:00,
2013-03-25 07:33:00,30.2,20.2,29.94,SE,135,0.0,-999.0,66,-99.99,,,0.00,Acu-Link.com,2013-03-25 14:33:00,
2013-03-25 07:48:00,30.2,19.9,29.94,ESE,112,0.0,-999.0,65,-99.99,,,0.00,Acu-Link.com,2013-03-25 14:48:00,
2013-03-25 08:03:00,30.2,19.5,29.94,South,180,0.0,-999.0,64,-99.99,,,0.00,Acu-Link.com,2013-03-25 15:03:00,
2013-03-25 08:18:00,30.2,19.5,29.94,SE,135,0.0,-999.0,64,-99.99,,,0.00,Acu-Link.com,2013-03-25 15:18:00,
2013-03-25 08:34:00,32.0,20.9,29.94,ESE,112,0.0,-999.0,63,-99.99,,,0.00,Acu-Link.com,2013-03-25 15:34:00,
2013-03-25 08:49:00,32.0,20.5,29.94,SE,135,0.0,-999.0,62,-99.99,,,0.00,Acu-Link.com,2013-03-25 15:49:00,
2013-03-25 09:04:00,32.0,20.1,29.94,SSE,157,0.0,-999.0,61,-99.99,,,0.00,Acu-Link.com,2013-03-25 16:04:00,
2013-03-25 09:19:00,32.0,19.3,29.94,ESE,112,3.1,-999.0,59,-99.99,,,0.00,Acu-Link.com,2013-03-25 16:19:00,
2013-03-25 09:34:00,33.8,19.4,29.94,SE,135,2.0,-999.0,55,-99.99,,,0.00,Acu-Link.com,2013-03-25 16:34:00,
2013-03-25 10:04:00,37.4,20.5,29.94,South,180,2.7,-999.0,50,-99.99,,,0.00,Acu-Link.com,2013-03-25 17:04:00,
2013-03-25 10:20:00,39.2,21.2,29.94,WSW,247,2.7,-999.0,48,-99.99,,,0.00,Acu-Link.com,2013-03-25 17:20:00,
2013-03-25 10:35:00,39.2,20.7,29.93,ENE,67,2.7,-999.0,47,-99.99,,,0.00,Acu-Link.com,2013-03-25 17:35:00,
2013-03-25 10:50:00,41.0,21.8,29.93,ESE,112,0.0,-999.0,46,-99.99,,,0.00,Acu-Link.com,2013-03-25 17:50:00,
2013-03-25 11:05:00,41.0,21.3,29.93,SE,135,3.6,-999.0,45,-99.99,,,0.00,Acu-Link.com,2013-03-25 18:05:00,
2013-03-25 11:20:00,42.8,22.4,29.92,ESE,112,3.6,-999.0,44,-99.99,,,0.00,Acu-Link.com,2013-03-25 18:20:00,
2013-03-25 11:35:00,42.8,23.5,29.92,ESE,112,3.1,-999.0,46,-99.99,,,0.00,Acu-Link.com,2013-03-25 18:35:00,
2013-03-25 11:51:00,44.6,24.1,29.91,NNE,22,4.0,-999.0,44,-99.99,,,0.00,Acu-Link.com,2013-03-25 18:51:00,
2013-03-25 12:06:00,42.8,22.9,29.91,South,180,2.0,-999.0,45,-99.99,,,0.00,Acu-Link.com,2013-03-25 19:06:00,
2013-03-25 12:36:00,44.6,24.1,29.91,SSW,202,2.0,-999.0,44,-99.99,,,0.00,Acu-Link.com,2013-03-25 19:36:00,
2013-03-25 12:51:00,44.6,23.5,29.90,South,180,1.6,-999.0,43,-99.99,,,0.00,Acu-Link.com,2013-03-25 19:51:00,
2013-03-25 13:06:00,44.6,22.9,29.90,WSW,247,0.0,-999.0,42,-99.99,,,0.00,Acu-Link.com,2013-03-25 20:06:00,
2013-03-25 13:21:00,46.4,25.1,29.89,NNE,22,1.6,-999.0,43,-99.99,,,0.00,Acu-Link.com,2013-03-25 20:21:00,
2013-03-25 13:52:00,46.4,25.1,29.88,West,270,2.0,-999.0,43,-99.99,,,0.00,Acu-Link.com,2013-03-25 20:52:00,
2013-03-25 14:07:00,46.4,25.7,29.87,West,270,2.7,-999.0,44,-99.99,,,0.00,Acu-Link.com,2013-03-25 21:07:00,
2013-03-25 14:22:00,46.4,24.6,29.87,SE,135,1.6,-999.0,42,-99.99,,,0.00,Acu-Link.com,2013-03-25 21:22:00,
2013-03-25 14:52:00,46.4,25.1,29.86,SE,135,0.0,-999.0,43,-99.99,,,0.00,Acu-Link.com,2013-03-25 21:52:00,
2013-03-25 15:07:00,48.2,26.8,29.86,ESE,112,1.6,-999.0,43,-99.99,,,0.00,Acu-Link.com,2013-03-25 22:07:00,
2013-03-25 15:22:00,48.2,26.2,29.85,SW,225,2.7,-999.0,42,-99.99,,,0.00,Acu-Link.com,2013-03-25 22:22:00,
2013-03-25 15:38:00,48.2,25.6,29.85,SE,135,4.7,-999.0,41,-99.99,,,0.00,Acu-Link.com,2013-03-25 22:38:00,
2013-03-25 15:53:00,46.4,24.0,29.84,West,270,1.6,-999.0,41,-99.99,,,0.00,Acu-Link.com,2013-03-25 22:53:00,
2013-03-25 16:08:00,50.0,26.6,29.84,ESE,112,2.7,-999.0,40,-99.99,,,0.00,Acu-Link.com,2013-03-25 23:08:00,
2013-03-25 16:23:00,48.2,25.0,29.84,SE,135,2.0,-999.0,40,-99.99,,,0.00,Acu-Link.com,2013-03-25 23:23:00,
2013-03-25 16:38:00,48.2,25.0,29.83,NE,45,3.1,-999.0,40,-99.99,,,0.00,Acu-Link.com,2013-03-25 23:38:00,
2013-03-25 16:53:00,46.4,24.0,29.83,West,270,3.1,-999.0,41,-99.99,,,0.00,Acu-Link.com,2013-03-25 23:53:00,
2013-03-25 17:08:00,46.4,24.0,29.82,ESE,112,2.7,-999.0,41,-99.99,,,0.00,Acu-Link.com,2013-03-26 00:08:00,
2013-03-25 17:23:00,46.4,25.1,29.82,SSE,157,2.7,-999.0,43,-99.99,,,0.00,Acu-Link.com,2013-03-26 00:23:00,
2013-03-25 17:38:00,46.4,25.1,29.82,SSW,202,2.0,-999.0,43,-99.99,,,0.00,Acu-Link.com,2013-03-26 00:38:00,
2013-03-25 17:53:00,44.6,24.1,29.82,West,270,1.6,-999.0,44,-99.99,,,0.00,Acu-Link.com,2013-03-26 00:53:00,
2013-03-25 18:08:00,44.6,23.5,29.82,South,180,0.0,-999.0,43,-99.99,,,0.00,Acu-Link.com,2013-03-26 01:08:00,
2013-03-25 18:23:00,44.6,24.6,29.81,NNE,22,0.0,-999.0,45,-99.99,,,0.00,Acu-Link.com,2013-03-26 01:23:00,
2013-03-25 18:38:00,42.8,22.9,29.81,ENE,67,1.1,-999.0,45,-99.99,,,0.00,Acu-Link.com,2013-03-26 01:38:00,
2013-03-25 18:53:00,42.8,24.5,29.81,East,90,0.0,-999.0,48,-99.99,,,0.00,Acu-Link.com,2013-03-26 01:53:00,
2013-03-25 19:08:00,41.0,22.8,29.82,ENE,67,0.0,-999.0,48,-99.99,,,0.00,Acu-Link.com,2013-03-26 02:08:00,
2013-03-25 19:23:00,41.0,22.8,29.82,ENE,67,0.0,-999.0,48,-99.99,,,0.00,Acu-Link.com,2013-03-26 02:23:00,
2013-03-25 19:39:00,39.2,22.1,29.82,NNE,22,0.0,-999.0,50,-99.99,,,0.00,Acu-Link.com,2013-03-26 02:39:00,
2013-03-25 19:54:00,37.4,20.9,29.82,ENE,67,0.0,-999.0,51,-99.99,,,0.00,Acu-Link.com,2013-03-26 02:54:00,
2013-03-25 20:09:00,37.4,21.9,29.82,ENE,67,0.0,-999.0,53,-99.99,,,0.00,Acu-Link.com,2013-03-26 03:09:00,
2013-03-25 20:24:00,35.6,20.6,29.82,East,90,0.0,-999.0,54,-99.99,,,0.00,Acu-Link.com,2013-03-26 03:24:00,
2013-03-25 20:39:00,35.6,22.7,29.82,West,270,0.0,-999.0,59,-99.99,,,0.00,Acu-Link.com,2013-03-26 03:39:00,
2013-03-25 20:54:00,33.8,20.6,29.82,ESE,112,0.0,-999.0,58,-99.99,,,0.00,Acu-Link.com,2013-03-26 03:54:00,
2013-03-25 21:10:00,33.8,21.8,29.83,ENE,67,0.0,-999.0,61,-99.99,,,0.00,Acu-Link.com,2013-03-26 04:10:00,
2013-03-25 21:25:00,33.8,22.2,29.83,NE,45,0.0,-999.0,62,-99.99,,,0.00,Acu-Link.com,2013-03-26 04:25:00,
2013-03-25 21:40:00,32.0,20.5,29.83,SE,135,0.0,-999.0,62,-99.99,,,0.00,Acu-Link.com,2013-03-26 04:40:00,
2013-03-25 21:55:00,32.0,20.1,29.84,ESE,112,0.0,-999.0,61,-99.99,,,0.00,Acu-Link.com,2013-03-26 04:55:00,
2013-03-25 22:10:00,32.0,20.5,29.84,ESE,112,0.0,-999.0,62,-99.99,,,0.00,Acu-Link.com,2013-03-26 05:10:00,
2013-03-25 22:26:00,32.0,20.9,29.84,ENE,67,0.0,-999.0,63,-99.99,,,0.00,Acu-Link.com,2013-03-26 05:26:00,
2013-03-25 22:41:00,32.0,20.9,29.84,ESE,112,0.0,-999.0,63,-99.99,,,0.00,Acu-Link.com,2013-03-26 05:41:00,
2013-03-25 23:12:00,30.2,20.2,29.84,ESE,112,0.0,-999.0,66,-99.99,,,0.00,Acu-Link.com,2013-03-26 06:12:00,
2013-03-25 23:27:00,30.2,20.6,29.84,East,90,0.0,-999.0,67,-99.99,,,0.00,Acu-Link.com,2013-03-26 06:27:00,
2013-03-25 23:57:00,30.2,20.9,29.84,WSW,247,0.0,-999.0,68,-99.99,,,0.00,Acu-Link.com,2013-03-26 06:57:00,